createdAt,value
2022-08-17T00:00:43.193Z,70.03
2022-08-17T00:03:42.974Z,69.90
2022-08-17T00:06:44.942Z,70.09
2022-08-17T00:09:47.750Z,70.24
2022-08-17T00:12:49.580Z,70.19
2022-08-17T00:15:52.130Z,70.41
2022-08-17T00:19:07.973Z,70.56
2022-08-17T00:22:33.716Z,70.93
2022-08-17T00:25:32.291Z,71.17
2022-08-17T00:28:34.285Z,71.13
2022-08-17T00:31:37.123Z,71.25
2022-08-17T00:34:39.283Z,71.54
2022-08-17T00:37:40.962Z,71.66
2022-08-17T00:40:47.051Z,71.85
2022-08-17T00:43:53.288Z,71.72
2022-08-17T00:46:55.164Z,71.93
2022-08-17T00:49:56.835Z,71.93
2022-08-17T00:52:58.827Z,72.19
2022-08-17T00:56:03.197Z,72.40
2022-08-17T00:59:08.965Z,72.81
2022-08-17T01:02:15.021Z,72.67
2022-08-17T01:05:20.752Z,73.06
2022-08-17T01:08:27.122Z,72.94
2022-08-17T01:11:30.153Z,73.09
2022-08-17T01:14:32.065Z,72.87
2022-08-17T01:17:34.434Z,73.01
2022-08-17T01:20:48.150Z,73.27
2022-08-17T01:23:50.505Z,73.37
2022-08-17T01:26:52.167Z,73.68
2022-08-17T01:29:59.560Z,73.64
2022-08-17T01:33:01.270Z,74.28
2022-08-17T01:36:04.196Z,73.04
2022-08-17T01:39:09.501Z,71.61
2022-08-17T01:42:23.404Z,71.60
2022-08-17T01:45:29.173Z,72.61
2022-08-17T01:48:35.878Z,73.31
2022-08-17T01:51:38.664Z,73.83
2022-08-17T01:54:43.490Z,74.59
2022-08-17T01:57:45.646Z,74.81
2022-08-17T02:01:00.934Z,75.17
2022-08-17T02:04:05.706Z,75.23
2022-08-17T02:07:07.329Z,75.41
2022-08-17T02:10:19.881Z,75.60
2022-08-17T02:13:22.183Z,75.34
2022-08-17T02:16:23.809Z,75.72
2022-08-17T02:19:25.490Z,75.63
2022-08-17T02:22:27.702Z,75.53
2022-08-17T02:25:32.515Z,75.89
2022-08-17T02:28:34.338Z,76.08
2022-08-17T02:31:35.935Z,76.29
2022-08-17T02:34:37.613Z,76.47
2022-08-17T02:37:42.001Z,76.29
2022-08-17T02:40:43.707Z,76.26
2022-08-17T02:43:46.968Z,76.37
2022-08-17T02:46:48.597Z,76.64
2022-08-17T02:49:55.464Z,76.74
2022-08-17T02:53:02.250Z,76.88
2022-08-17T02:56:04.620Z,77.07
2022-08-17T02:59:06.266Z,77.25
2022-08-17T03:02:10.607Z,77.07
2022-08-17T03:05:14.583Z,77.13
2022-08-17T03:08:16.425Z,77.39
2022-08-17T03:11:18.081Z,77.48
2022-08-17T03:14:19.793Z,77.54
2022-08-17T03:17:27.985Z,77.70
2022-08-17T03:20:32.162Z,78.38
2022-08-17T03:23:33.947Z,78.04
2022-08-17T03:26:36.114Z,77.99
2022-08-17T03:29:37.778Z,77.65
2022-08-17T03:32:43.021Z,77.65
2022-08-17T03:35:44.780Z,77.60
2022-08-17T03:38:46.394Z,77.68
2022-08-17T03:41:48.083Z,77.95
2022-08-17T03:44:50.724Z,77.92
2022-08-17T03:48:11.150Z,77.91
2022-08-17T03:51:42.586Z,78.04
2022-08-17T03:55:03.787Z,78.24
2022-08-17T03:58:05.429Z,78.40
2022-08-17T04:01:07.782Z,78.59
2022-08-17T04:04:09.838Z,78.85
2022-08-17T04:07:11.952Z,78.71
2022-08-17T04:10:14.113Z,78.98
2022-08-17T04:13:15.832Z,79.13
2022-08-17T04:16:26.904Z,79.62
2022-08-17T04:19:28.457Z,79.51
2022-08-17T04:22:34.282Z,79.64
2022-08-17T04:25:38.475Z,79.73
2022-08-17T04:28:41.941Z,79.91
2022-08-17T04:31:44.603Z,79.76
2022-08-17T04:34:46.217Z,79.83
2022-08-17T04:37:47.995Z,79.86
2022-08-17T04:41:08.666Z,79.90
2022-08-17T04:44:11.543Z,80.36
2022-08-17T04:47:14.012Z,80.48
2022-08-17T04:50:15.655Z,80.47
2022-08-17T04:53:19.547Z,80.23
2022-08-17T04:56:21.610Z,80.28
2022-08-17T04:59:23.385Z,80.01
2022-08-17T05:02:24.990Z,79.67
2022-08-17T05:05:33.971Z,79.89
2022-08-17T05:08:35.610Z,79.76
2022-08-17T05:11:37.821Z,79.66
2022-08-17T05:14:46.520Z,79.40
2022-08-17T05:17:48.113Z,79.21
2022-08-17T05:20:49.834Z,79.25
2022-08-17T05:23:56.392Z,78.99
2022-08-17T05:27:02.582Z,78.71
2022-08-17T05:30:08.379Z,78.43
2022-08-17T05:33:20.850Z,78.05
2022-08-17T05:36:41.622Z,77.50
2022-08-17T05:39:44.109Z,76.54
2022-08-17T05:42:45.825Z,75.40
2022-08-17T05:46:06.079Z,73.47
2022-08-17T05:49:08.526Z,72.94
2022-08-17T05:52:38.510Z,73.11
2022-08-17T05:55:56.025Z,74.07
2022-08-17T05:59:25.139Z,74.31
2022-08-17T06:02:47.868Z,74.57
2022-08-17T06:06:32.168Z,75.08
2022-08-17T06:09:44.583Z,75.81
2022-08-17T06:12:46.117Z,75.33
2022-08-17T06:16:31.160Z,74.53
2022-08-17T06:19:50.897Z,72.20
2022-08-17T06:22:59.505Z,72.02
2022-08-17T06:26:10.888Z,72.27
2022-08-17T06:29:50.805Z,72.49
2022-08-17T06:32:55.177Z,73.28
2022-08-17T06:36:25.280Z,73.36
2022-08-17T06:39:37.706Z,73.54
2022-08-17T06:42:54.738Z,73.55
2022-08-17T06:46:16.733Z,73.58
2022-08-17T06:49:21.971Z,73.13
2022-08-17T06:52:45.507Z,72.86
2022-08-17T06:55:59.990Z,73.20
2022-08-17T06:59:03.247Z,72.72
2022-08-17T07:02:09.051Z,72.50
2022-08-17T07:05:14.575Z,71.73
2022-08-17T07:08:54.714Z,71.01
2022-08-17T07:12:10.019Z,70.42
2022-08-17T07:15:16.598Z,69.36
2022-08-17T07:18:18.325Z,66.80
2022-08-17T07:21:27.064Z,66.17
2022-08-17T07:24:59.549Z,66.18
2022-08-17T07:28:07.016Z,66.00
2022-08-17T07:31:09.407Z,63.47
2022-08-17T07:34:16.102Z,61.40
2022-08-17T07:37:19.308Z,61.66
2022-08-17T07:40:33.673Z,59.57
2022-08-17T07:43:36.662Z,59.36
2022-08-17T07:47:07.991Z,57.82
2022-08-17T07:50:28.901Z,57.77
2022-08-17T07:53:31.917Z,57.92
2022-08-17T07:56:37.878Z,56.00
2022-08-17T07:59:43.203Z,55.47
2022-08-17T08:02:58.958Z,55.06
2022-08-17T08:06:03.347Z,54.33
2022-08-17T08:09:04.970Z,55.14
2022-08-17T08:12:32.715Z,52.55
2022-08-17T08:15:39.730Z,51.98
2022-08-17T08:18:55.015Z,50.99
2022-08-17T08:22:07.631Z,50.11
2022-08-17T08:25:24.858Z,49.25
2022-08-17T08:28:34.565Z,50.18
2022-08-17T08:31:48.442Z,49.51
2022-08-17T08:35:07.230Z,50.35
2022-08-17T08:38:24.755Z,49.45
2022-08-17T08:41:48.218Z,50.17
2022-08-17T08:45:05.506Z,50.51
2022-08-17T08:48:53.344Z,50.49
2022-08-17T08:51:59.670Z,50.22
2022-08-17T08:55:26.067Z,50.06
2022-08-17T08:58:43.815Z,50.27
2022-08-17T09:02:04.095Z,50.01
2022-08-17T09:05:26.986Z,49.01
2022-08-17T09:08:31.803Z,49.34
2022-08-17T09:12:02.302Z,49.07
2022-08-17T09:15:10.916Z,48.44
2022-08-17T09:19:00.336Z,46.52
2022-08-17T09:22:07.696Z,46.07
2022-08-17T09:25:12.209Z,45.63
2022-08-17T09:28:20.299Z,46.58
2022-08-17T09:31:33.286Z,46.11
2022-08-17T09:34:48.382Z,44.67
2022-08-17T09:37:50.301Z,44.64
2022-08-17T09:41:07.471Z,45.21
2022-08-17T09:44:36.133Z,46.18
2022-08-17T09:47:45.906Z,44.51
2022-08-17T09:51:05.224Z,45.39
2022-08-17T09:54:38.474Z,45.27
2022-08-17T09:57:44.119Z,43.78
2022-08-17T10:01:01.849Z,43.85
2022-08-17T10:04:17.721Z,44.18
2022-08-17T10:07:28.960Z,43.59
2022-08-17T10:10:52.499Z,42.95
2022-08-17T10:14:37.282Z,44.53
2022-08-17T10:17:46.802Z,43.04
2022-08-17T10:21:17.501Z,43.81
2022-08-17T10:25:21.248Z,42.71
2022-08-17T10:28:20.052Z,42.49
2022-08-17T10:31:35.692Z,41.57
2022-08-17T10:35:03.489Z,42.66
2022-08-17T10:38:17.219Z,43.17
2022-08-17T10:41:26.912Z,43.76
2022-08-17T10:44:51.468Z,42.65
2022-08-17T10:48:04.848Z,42.26
2022-08-17T10:51:36.405Z,43.49
2022-08-17T10:54:49.052Z,42.80
2022-08-17T10:57:51.142Z,42.62
2022-08-17T11:00:53.361Z,42.86
2022-08-17T11:03:58.366Z,43.26
2022-08-17T11:07:25.803Z,44.02
2022-08-17T11:11:03.006Z,43.09
2022-08-17T11:14:33.856Z,43.37
2022-08-17T11:17:49.854Z,43.63
2022-08-17T11:21:09.503Z,43.95
2022-08-17T11:24:30.615Z,43.82
2022-08-17T11:27:36.548Z,45.33
2022-08-17T11:30:59.403Z,44.06
2022-08-17T11:34:05.432Z,42.90
2022-08-17T11:37:31.052Z,42.64
2022-08-17T11:40:35.798Z,42.07
2022-08-17T11:43:55.897Z,42.16
2022-08-17T11:47:36.852Z,41.09
2022-08-17T11:51:03.917Z,40.72
2022-08-17T11:57:41.504Z,41.59
2022-08-17T12:00:46.043Z,41.54
2022-08-17T12:03:55.231Z,40.78
2022-08-17T12:07:06.683Z,41.25
2022-08-17T12:10:12.219Z,41.67
2022-08-17T12:13:16.357Z,41.48
2022-08-17T12:16:20.628Z,41.98
2022-08-17T12:19:23.774Z,40.21
2022-08-17T12:22:33.206Z,39.68
2022-08-17T12:25:56.675Z,41.08
2022-08-17T12:29:09.374Z,42.65
2022-08-17T12:32:21.924Z,42.43
2022-08-17T12:35:35.442Z,42.98
2022-08-17T12:38:38.195Z,42.57
2022-08-17T12:41:43.302Z,39.40
2022-08-17T12:44:50.309Z,38.38
2022-08-17T12:48:07.822Z,39.13
2022-08-17T12:51:12.308Z,40.45
2022-08-17T12:54:31.515Z,40.79
2022-08-17T12:57:47.635Z,39.82
2022-08-17T13:00:56.237Z,39.46
2022-08-17T13:04:00.150Z,41.10
2022-08-17T13:07:01.815Z,41.97
2022-08-17T13:10:04.293Z,39.44
2022-08-17T13:13:26.007Z,39.24
2022-08-17T13:16:33.328Z,39.49
2022-08-17T13:19:38.978Z,39.11
2022-08-17T13:22:44.370Z,39.38
2022-08-17T13:25:54.124Z,39.49
2022-08-17T13:28:55.772Z,39.05
2022-08-17T13:32:17.982Z,39.59
2022-08-17T13:35:39.455Z,39.08
2022-08-17T13:38:49.596Z,38.74
2022-08-17T13:41:56.090Z,40.28
2022-08-17T13:44:59.923Z,39.38
2022-08-17T13:48:07.600Z,39.37
2022-08-17T13:51:24.732Z,39.02
2022-08-17T13:54:33.201Z,40.40
2022-08-17T13:57:36.148Z,41.24
2022-08-17T14:00:37.852Z,40.37
2022-08-17T14:03:39.471Z,40.67
2022-08-17T14:07:19.737Z,39.55
2022-08-17T14:10:21.659Z,39.13
2022-08-17T14:13:23.472Z,39.60
2022-08-17T14:16:25.206Z,39.52
2022-08-17T14:19:26.848Z,39.73
2022-08-17T14:22:31.801Z,39.70
2022-08-17T14:25:33.471Z,40.36
2022-08-17T14:28:36.388Z,40.78
2022-08-17T14:31:39.002Z,41.42
2022-08-17T14:34:40.803Z,42.55
2022-08-17T14:37:44.823Z,44.27
2022-08-17T14:40:48.231Z,41.05
2022-08-17T14:43:51.445Z,44.13
2022-08-17T14:46:53.142Z,44.31
2022-08-17T14:49:54.865Z,46.70
2022-08-17T14:52:58.164Z,45.78
2022-08-17T14:56:01.696Z,46.54
2022-08-17T14:59:07.701Z,42.24
2022-08-17T15:02:11.004Z,40.94
2022-08-17T15:05:15.071Z,42.20
2022-08-17T15:08:17.879Z,42.84
2022-08-17T15:11:19.784Z,44.28
2022-08-17T15:14:22.452Z,44.02
2022-08-17T15:17:24.158Z,45.40
2022-08-17T15:20:29.013Z,45.00
2022-08-17T15:23:31.812Z,45.69
2022-08-17T15:26:33.541Z,45.85
2022-08-17T15:29:35.144Z,47.49
2022-08-17T15:32:40.156Z,49.81
2022-08-17T15:35:42.843Z,51.33
2022-08-17T15:38:45.972Z,53.60
2022-08-17T15:41:58.348Z,56.65
2022-08-17T15:45:13.328Z,57.81
2022-08-17T15:48:15.009Z,59.06
2022-08-17T15:51:18.756Z,58.66
2022-08-17T15:54:22.444Z,59.04
2022-08-17T15:57:25.929Z,59.28
2022-08-17T16:00:29.268Z,59.17
2022-08-17T16:03:58.182Z,59.28
2022-08-17T16:06:54.362Z,59.05
2022-08-17T16:09:56.273Z,59.11
2022-08-17T16:12:58.692Z,59.28
2022-08-17T16:16:00.305Z,59.40
2022-08-17T16:19:01.938Z,60.35
2022-08-17T16:22:05.620Z,60.54
2022-08-17T16:25:11.223Z,61.05
2022-08-17T16:28:15.414Z,60.23
2022-08-17T16:31:17.392Z,58.77
2022-08-17T16:34:19.146Z,58.10
2022-08-17T16:37:20.721Z,57.78
2022-08-17T16:40:25.945Z,57.92
2022-08-17T16:43:29.312Z,57.51
2022-08-17T16:46:31.226Z,57.97
2022-08-17T16:49:37.332Z,57.88
2022-08-17T16:52:40.691Z,57.81
2022-08-17T16:55:42.864Z,57.59
2022-08-17T16:58:45.002Z,57.96
2022-08-17T17:01:47.785Z,58.22
2022-08-17T17:05:15.743Z,58.43
2022-08-17T17:08:44.583Z,58.83
2022-08-17T17:11:50.927Z,58.79
2022-08-17T17:14:53.312Z,58.52
2022-08-17T17:18:01.796Z,58.95
2022-08-17T17:21:14.122Z,59.95
2022-08-17T17:24:26.159Z,60.93
2022-08-17T17:27:38.039Z,60.70
2022-08-17T17:31:08.167Z,60.16
2022-08-17T17:34:16.559Z,60.12
2022-08-17T17:37:26.151Z,60.56
2022-08-17T17:40:47.265Z,60.82
2022-08-17T17:44:02.717Z,62.19
2022-08-17T17:47:05.323Z,62.73
2022-08-17T17:50:08.037Z,62.94
2022-08-17T17:53:26.104Z,63.31
2022-08-17T17:56:55.687Z,62.97
2022-08-17T18:00:12.705Z,63.46
2022-08-17T18:03:20.445Z,63.54
2022-08-17T18:06:21.929Z,63.50
2022-08-17T18:09:34.016Z,63.56
2022-08-17T18:13:08.018Z,64.04
2022-08-17T18:16:14.025Z,63.99
2022-08-17T18:19:21.420Z,64.40
2022-08-17T18:22:23.696Z,64.65
2022-08-17T18:25:44.594Z,64.81
2022-08-17T18:28:50.744Z,65.21
2022-08-17T18:32:13.684Z,65.52
2022-08-17T18:35:18.339Z,65.86
2022-08-17T18:38:22.253Z,66.37
2022-08-17T18:41:30.342Z,66.79
2022-08-17T18:44:38.101Z,67.65
2022-08-17T18:47:55.619Z,67.76
2022-08-17T18:51:26.338Z,67.85
2022-08-17T18:55:11.549Z,67.99
2022-08-17T18:58:18.229Z,68.03
2022-08-17T19:01:21.347Z,68.53
2022-08-17T19:04:32.769Z,68.48
2022-08-17T19:07:43.334Z,67.88
2022-08-17T19:10:48.621Z,68.10
2022-08-17T19:13:56.938Z,68.39
2022-08-17T19:17:09.013Z,68.17
2022-08-17T19:20:19.887Z,67.58
2022-08-17T19:23:36.043Z,67.23
2022-08-17T19:26:54.826Z,67.07
2022-08-17T19:30:08.200Z,66.85
2022-08-17T19:33:10.242Z,66.42
2022-08-17T19:36:22.461Z,66.52
2022-08-17T19:39:59.276Z,65.70
2022-08-17T19:43:06.906Z,65.78
2022-08-17T19:46:42.975Z,65.90
2022-08-17T19:50:10.278Z,66.21
2022-08-17T19:53:47.795Z,66.17
2022-08-17T19:57:05.582Z,65.27
2022-08-17T20:00:18.544Z,65.50
2022-08-17T20:03:34.906Z,65.42
2022-08-17T20:06:40.398Z,65.50
2022-08-17T20:10:05.666Z,65.78
2022-08-17T20:13:16.910Z,66.23
2022-08-17T20:16:20.125Z,66.65
2022-08-17T20:19:29.757Z,66.88
2022-08-17T20:22:52.048Z,67.12
2022-08-17T20:26:09.436Z,67.45
2022-08-17T20:29:14.310Z,67.68
2022-08-17T20:32:25.127Z,68.04
2022-08-17T20:35:31.190Z,68.56
2022-08-17T20:38:40.362Z,68.56
2022-08-17T20:42:04.455Z,68.64
2022-08-17T20:45:38.350Z,69.16
2022-08-17T20:48:46.426Z,69.14
2022-08-17T20:52:13.577Z,68.96
2022-08-17T20:55:33.901Z,68.79
2022-08-17T20:58:37.002Z,68.98
2022-08-17T21:01:40.567Z,69.65
2022-08-17T21:04:50.010Z,69.91
2022-08-17T21:07:59.360Z,70.27
2022-08-17T21:12:03.445Z,70.38
2022-08-17T21:15:03.768Z,70.52
2022-08-17T21:18:18.394Z,70.66
2022-08-17T21:21:29.270Z,70.99
2022-08-17T21:24:43.466Z,71.15
2022-08-17T21:28:07.208Z,71.82
2022-08-17T21:31:38.601Z,72.08
2022-08-17T21:34:44.984Z,72.09
2022-08-17T21:37:49.945Z,72.38
2022-08-17T21:40:53.194Z,72.88
2022-08-17T21:44:02.791Z,73.34
2022-08-17T21:47:24.529Z,73.58
2022-08-17T21:50:26.199Z,73.43
2022-08-17T21:53:48.140Z,73.35
2022-08-17T21:56:50.187Z,73.66
2022-08-17T22:00:05.571Z,73.73
2022-08-17T22:03:23.646Z,74.02
2022-08-17T22:06:36.166Z,74.31
2022-08-17T22:09:47.718Z,74.66
2022-08-17T22:13:06.034Z,75.06
2022-08-17T22:16:28.969Z,75.39
2022-08-17T22:19:34.891Z,75.62
2022-08-17T22:23:18.368Z,75.86
2022-08-17T22:26:22.633Z,76.20
2022-08-17T22:29:44.594Z,76.11
2022-08-17T22:32:48.411Z,73.14
2022-08-17T22:36:20.281Z,73.41
2022-08-17T22:39:23.786Z,73.86
2022-08-17T22:42:25.686Z,74.81
2022-08-17T22:45:31.116Z,75.37
2022-08-17T22:48:33.583Z,76.00
2022-08-17T22:51:36.574Z,76.83
2022-08-17T22:54:56.883Z,77.45
2022-08-17T22:58:17.788Z,77.50
2022-08-17T23:01:31.397Z,77.95
2022-08-17T23:04:37.703Z,77.82
2022-08-17T23:07:44.800Z,77.86
2022-08-17T23:10:47.725Z,78.04
2022-08-17T23:13:49.892Z,77.89
2022-08-17T23:16:51.552Z,77.60
2022-08-17T23:19:54.812Z,78.01
2022-08-17T23:22:59.575Z,77.89
2022-08-17T23:26:01.793Z,77.58
2022-08-17T23:29:07.622Z,77.31
2022-08-17T23:32:13.542Z,77.26
2022-08-17T23:35:16.684Z,76.88
2022-08-17T23:38:18.350Z,76.62
2022-08-17T23:41:23.317Z,76.43
2022-08-17T23:44:25.216Z,76.20
2022-08-17T23:47:28.612Z,75.92
2022-08-17T23:50:30.249Z,75.82
2022-08-17T23:53:34.706Z,76.12
2022-08-17T23:56:45.539Z,76.51
2022-08-17T23:59:47.296Z,76.64
